Hlavní strana
METAR-TAF:

METAR-TAF

Letiště :

Letiště Antananarivo

Antananarivo, Madagaskar

zeměpisná šířka: 18-48S, zeměpisná délka: 047-29E, výška: 1279 m

Aktuální stav počasí

Zpráva byla vytvořena před 45 minutami, v 04:00 UTC
Jihojihovýchodní vítr 4 kt, proměnlivý mezi východojihovýchodním a jižním
Teplota 16°C
Vlhkost vzduchu 88%
Tlak 1021 hPa
Viditelnost 10 km a více
Skoro jasno ve výšce 1700 ft
Polojasno ve výšce 2000 ft

METAR: FMMI 050400Z 15004KT 110V190 9999 FEW017 SCT020 16/14 Q1021 NOSIG

Čas: 07:45 (04:45 UTC)

Předpověď počasí

Zpráva byla vytvořena před 5 hodinami a 45 minutami, v 23:00 UTC
Předpověď platná od 05 v 00 UTC do 06 v 06 UTC
Jihovýchodní vítr 6 kt
Viditelnost 10 km a více
Skoro jasno ve výšce 1700 ft
Polojasno ve výšce 2000 ft
Pravděpodobnost 30% :
Dočasný
od 06 v 03 UTC do 06 v 06 UTC
Viditelnost: 1500 m
Oblačno až skoro zataženo ve výšce 400 ft
kouřmo

TAF: FMMI 042300Z 0500/0606 14006KT 9999 FEW017 SCT020 PROB30 TEMPO 0603/0606 1500 BR BKN004

Stav a předpovědi počasí z více než 4 000 letišť (zprávy METAR a TAF).

Červené a žluté tečky na mapě představují dostupné meteorologické stanice.

Když kurzor umístíte na tečku, zobrazí se název stanice.

Pak kliknutím zobrazíte stav a předpověď počasí.

Chcete-li změnit mapu, kliknutím na zelené tlačítko se znaménkem +mapu přiblížíte, kliknutím na zelené tlačítko se znaménkem – mapu oddálíte a kliknutím na zelené šipky přejdete na sousední mapy.


METAR-TAF: